createdAt,value
2022-12-16T00:01:16.828Z,11.35
2022-12-16T00:03:18.515Z,10.95
2022-12-16T00:05:20.704Z,14.13
2022-12-16T00:07:22.363Z,11.15
2022-12-16T00:09:24.030Z,11.75
2022-12-16T00:11:25.714Z,10.05
2022-12-16T00:13:28.846Z,10.32
2022-12-16T00:15:30.630Z,15.50
2022-12-16T00:17:32.447Z,8.93
2022-12-16T00:19:34.115Z,9.23
2022-12-16T00:21:36.633Z,15.57
2022-12-16T00:23:44.576Z,10.02
2022-12-16T00:25:47.417Z,8.82
2022-12-16T00:27:49.103Z,12.80
2022-12-16T00:29:50.818Z,12.25
2022-12-16T00:31:52.514Z,10.20
2022-12-16T00:33:59.697Z,10.55
2022-12-16T00:36:01.389Z,9.40
2022-12-16T00:38:03.183Z,12.38
2022-12-16T00:40:05.508Z,12.10
2022-12-16T00:42:07.288Z,11.98
2022-12-16T00:44:09.723Z,11.35
2022-12-16T00:46:11.573Z,10.25
2022-12-16T00:48:13.405Z,15.23
2022-12-16T00:50:15.123Z,12.00
2022-12-16T00:52:16.770Z,14.98
2022-12-16T00:54:18.509Z,13.18
2022-12-16T00:56:20.181Z,13.98
2022-12-16T00:58:21.833Z,15.80
2022-12-16T01:00:23.910Z,10.25
2022-12-16T01:02:25.807Z,13.38
2022-12-16T01:04:27.694Z,11.60
2022-12-16T01:06:29.383Z,11.15
2022-12-16T01:08:31.047Z,10.18
2022-12-16T01:10:32.767Z,13.63
2022-12-16T01:12:35.560Z,14.50
2022-12-16T01:14:37.276Z,12.80
2022-12-16T01:16:39.032Z,15.20
2022-12-16T01:18:40.863Z,10.52
2022-12-16T01:20:42.656Z,11.85
2022-12-16T01:22:44.322Z,15.43
2022-12-16T01:24:46.131Z,10.80
2022-12-16T01:26:47.783Z,13.95
2022-12-16T01:28:49.547Z,11.60
2022-12-16T01:31:01.955Z,10.77
2022-12-16T01:33:03.938Z,12.85
2022-12-16T01:35:18.144Z,10.40
2022-12-16T01:37:28.323Z,12.10
2022-12-16T01:39:30.357Z,12.30
2022-12-16T01:41:32.017Z,11.18
2022-12-16T01:43:36.933Z,11.45
2022-12-16T01:45:38.960Z,12.63
2022-12-16T01:47:40.700Z,17.25
2022-12-16T01:49:55.333Z,12.32
2022-12-16T01:52:02.046Z,10.60
2022-12-16T01:54:21.646Z,11.88
2022-12-16T01:56:27.286Z,16.73
2022-12-16T01:58:34.510Z,18.67
2022-12-16T02:00:37.996Z,17.70
2022-12-16T02:02:43.932Z,18.63
2022-12-16T02:05:04.624Z,10.13
2022-12-16T02:07:06.299Z,18.10
2022-12-16T02:09:11.302Z,10.95
2022-12-16T02:11:47.680Z,12.13
2022-12-16T02:13:52.287Z,11.25
2022-12-16T02:16:27.792Z,10.75
2022-12-16T02:18:44.663Z,12.00
2022-12-16T02:21:20.200Z,12.82
2022-12-16T02:23:50.471Z,12.05
2022-12-16T02:25:59.370Z,14.05
2022-12-16T02:28:12.346Z,15.73
2022-12-16T02:30:32.888Z,15.13
2022-12-16T02:32:52.859Z,10.35
2022-12-16T02:35:22.564Z,12.37
2022-12-16T02:37:43.153Z,13.95
2022-12-16T02:40:08.906Z,16.40
2022-12-16T02:42:20.074Z,17.05
2022-12-16T02:44:35.813Z,17.95
2022-12-16T02:46:53.013Z,13.52
2022-12-16T02:49:06.261Z,14.43
2022-12-16T02:53:15.545Z,11.43
2022-12-16T02:55:17.713Z,13.55
2022-12-16T02:57:40.374Z,15.63
2022-12-16T03:00:03.838Z,11.15
2022-12-16T03:02:19.703Z,12.65
2022-12-16T03:04:58.789Z,13.52
2022-12-16T03:07:01.638Z,14.93
2022-12-16T03:09:07.862Z,13.82
2022-12-16T03:11:09.799Z,13.40
2022-12-16T03:13:13.447Z,11.82
2022-12-16T03:15:20.340Z,13.20
2022-12-16T03:17:24.511Z,14.68
2022-12-16T03:19:28.217Z,11.13
2022-12-16T03:21:37.444Z,14.40
2022-12-16T03:23:52.770Z,14.27
2022-12-16T03:25:59.367Z,14.18
2022-12-16T03:28:16.857Z,13.55
2022-12-16T03:30:25.534Z,15.40
2022-12-16T03:32:41.401Z,14.60
2022-12-16T03:34:52.119Z,13.60
2022-12-16T03:38:59.842Z,15.93
2022-12-16T03:41:08.706Z,13.05
2022-12-16T03:43:16.136Z,15.15
2022-12-16T03:45:24.409Z,15.00
2022-12-16T03:47:29.609Z,11.48
2022-12-16T03:49:31.384Z,11.75
2022-12-16T03:51:33.064Z,13.60
2022-12-16T03:53:35.112Z,13.55
2022-12-16T03:55:37.030Z,15.55
2022-12-16T03:57:38.665Z,12.57
2022-12-16T03:59:40.324Z,15.82
2022-12-16T04:01:42.050Z,16.33
2022-12-16T04:03:43.936Z,9.43
2022-12-16T04:05:45.909Z,15.57
2022-12-16T04:07:47.690Z,12.65
2022-12-16T04:09:49.607Z,17.27
2022-12-16T04:12:09.998Z,16.35
2022-12-16T04:14:30.126Z,19.10
2022-12-16T04:16:50.350Z,9.82
2022-12-16T04:19:10.561Z,12.48
2022-12-16T04:21:31.179Z,15.25
2022-12-16T04:23:54.200Z,16.77
2022-12-16T04:25:55.954Z,11.52
2022-12-16T04:27:58.748Z,13.95
2022-12-16T04:30:19.261Z,11.85
2022-12-16T04:32:21.133Z,16.23
2022-12-16T04:34:25.849Z,13.75
2022-12-16T04:36:46.108Z,14.90
2022-12-16T04:39:06.267Z,11.40
2022-12-16T04:41:26.474Z,13.40
2022-12-16T04:43:47.043Z,12.48
2022-12-16T04:46:07.608Z,11.52
2022-12-16T04:48:28.071Z,17.80
2022-12-16T04:50:48.555Z,16.80
2022-12-16T04:53:12.005Z,12.57
2022-12-16T04:55:32.536Z,12.80
2022-12-16T04:57:53.594Z,13.43
2022-12-16T05:00:14.258Z,14.82
2022-12-16T05:02:42.445Z,14.73
2022-12-16T05:05:02.917Z,13.27
2022-12-16T05:07:23.433Z,15.02
2022-12-16T05:09:43.785Z,14.27
2022-12-16T05:12:04.240Z,18.00
2022-12-16T05:14:24.658Z,14.45
2022-12-16T05:16:45.061Z,16.15
2022-12-16T05:19:05.471Z,12.52
2022-12-16T05:21:25.772Z,19.48
2022-12-16T05:23:46.250Z,21.70
2022-12-16T05:26:07.746Z,14.82
2022-12-16T05:28:27.947Z,13.90
2022-12-16T05:30:48.442Z,12.57
2022-12-16T05:33:09.061Z,18.60
2022-12-16T05:35:29.421Z,15.77
2022-12-16T05:37:49.885Z,13.45
2022-12-16T05:40:10.377Z,15.38
2022-12-16T05:42:30.855Z,17.90
2022-12-16T05:44:51.260Z,15.32
2022-12-16T05:47:11.800Z,16.67
2022-12-16T05:49:39.587Z,16.15
2022-12-16T05:52:00.070Z,17.33
2022-12-16T05:54:20.328Z,17.52
2022-12-16T05:56:40.772Z,16.95
2022-12-16T05:59:00.593Z,14.52
2022-12-16T06:01:20.766Z,17.50
2022-12-16T06:03:41.294Z,16.98
2022-12-16T06:06:01.856Z,14.93
2022-12-16T06:08:22.289Z,15.43
2022-12-16T06:10:42.840Z,18.85
2022-12-16T06:13:06.402Z,18.92
2022-12-16T06:15:26.961Z,15.85
2022-12-16T06:17:47.801Z,14.40
2022-12-16T06:22:28.437Z,15.85
2022-12-16T06:24:48.363Z,19.35
2022-12-16T06:27:08.369Z,15.17
2022-12-16T06:29:28.845Z,15.15
2022-12-16T06:31:49.136Z,16.70
2022-12-16T06:34:09.459Z,22.67
2022-12-16T06:36:29.926Z,18.83
2022-12-16T06:38:50.341Z,17.67
2022-12-16T06:41:10.797Z,17.75
2022-12-16T06:43:31.322Z,21.00
2022-12-16T06:48:12.335Z,16.65
2022-12-16T06:50:32.666Z,17.83
2022-12-16T06:52:53.069Z,15.70
2022-12-16T06:55:13.559Z,17.85
2022-12-16T06:57:34.081Z,17.90
2022-12-16T06:59:54.521Z,17.48
2022-12-16T07:02:14.726Z,18.02
2022-12-16T07:04:35.283Z,20.50
2022-12-16T07:06:55.499Z,15.30
2022-12-16T07:09:16.014Z,20.20
2022-12-16T07:12:04.597Z,19.45
2022-12-16T07:14:24.768Z,18.67
2022-12-16T07:16:45.376Z,22.05
2022-12-16T07:19:09.840Z,17.83
2022-12-16T07:21:37.922Z,18.80
2022-12-16T07:23:59.098Z,20.20
2022-12-16T07:26:19.820Z,17.42
2022-12-16T07:28:40.743Z,18.92
2022-12-16T07:31:02.840Z,19.67
2022-12-16T07:33:23.339Z,17.55
2022-12-16T07:35:44.082Z,17.45
2022-12-16T07:38:25.799Z,18.38
2022-12-16T07:40:46.287Z,17.33
2022-12-16T07:43:06.838Z,18.55
2022-12-16T07:45:28.118Z,19.85
2022-12-16T07:47:49.030Z,20.48
2022-12-16T07:52:29.965Z,20.67
2022-12-16T07:55:07.268Z,19.45
2022-12-16T07:57:28.691Z,17.50
2022-12-16T07:59:49.046Z,21.15
2022-12-16T08:02:09.581Z,19.08
2022-12-16T08:04:29.933Z,25.85
2022-12-16T08:06:49.870Z,19.35
2022-12-16T08:09:10.099Z,19.07
2022-12-16T08:11:30.542Z,21.40
2022-12-16T08:13:50.990Z,22.40
2022-12-16T08:16:11.572Z,21.48
2022-12-16T08:18:32.114Z,22.30
2022-12-16T08:20:52.438Z,21.35
2022-12-16T08:23:15.491Z,22.17
2022-12-16T08:25:35.696Z,22.95
2022-12-16T08:28:03.941Z,24.55
2022-12-16T08:30:24.932Z,26.15
2022-12-16T08:32:45.555Z,23.23
2022-12-16T08:35:06.095Z,20.60
2022-12-16T08:37:26.433Z,22.25
2022-12-16T08:39:59.138Z,21.33
2022-12-16T08:42:27.126Z,24.30
2022-12-16T08:44:47.674Z,22.58
2022-12-16T08:47:08.351Z,21.60
2022-12-16T08:49:29.197Z,25.75
2022-12-16T08:51:49.998Z,22.50
2022-12-16T08:54:11.397Z,25.10
2022-12-16T08:56:31.918Z,26.38
2022-12-16T08:58:52.452Z,21.70
2022-12-16T09:01:12.935Z,19.58
2022-12-16T09:03:33.835Z,20.42
2022-12-16T09:05:54.330Z,22.52
2022-12-16T09:08:22.200Z,21.48
2022-12-16T09:10:42.798Z,21.02
2022-12-16T09:13:03.207Z,22.88
2022-12-16T09:15:23.656Z,23.13
2022-12-16T09:17:50.165Z,25.42
2022-12-16T09:20:11.300Z,26.27
2022-12-16T09:22:31.819Z,22.77
2022-12-16T09:24:52.385Z,24.75
2022-12-16T09:27:12.931Z,26.13
2022-12-16T09:29:33.905Z,27.48
2022-12-16T09:31:55.682Z,24.30
2022-12-16T09:34:16.336Z,23.65
2022-12-16T09:36:36.781Z,22.85
2022-12-16T09:39:10.020Z,29.30
2022-12-16T09:42:10.582Z,24.90
2022-12-16T09:44:33.896Z,22.05
2022-12-16T09:47:53.297Z,22.70
2022-12-16T09:50:14.162Z,23.67
2022-12-16T09:55:02.770Z,26.55
2022-12-16T09:57:24.472Z,28.80
2022-12-16T09:59:49.879Z,30.33
2022-12-16T10:02:11.472Z,25.08
2022-12-16T10:04:31.878Z,26.02
2022-12-16T10:06:51.781Z,29.23
2022-12-16T10:09:22.405Z,31.73
2022-12-16T10:12:00.331Z,28.02
2022-12-16T10:14:37.317Z,32.38
2022-12-16T10:17:14.873Z,31.38
2022-12-16T10:20:13.757Z,33.80
2022-12-16T10:23:11.365Z,26.30
2022-12-16T10:26:23.122Z,25.13
2022-12-16T10:29:12.513Z,26.58
2022-12-16T10:31:35.880Z,29.25
2022-12-16T10:33:56.281Z,30.10
2022-12-16T10:36:16.846Z,35.30
2022-12-16T10:38:55.900Z,24.98
2022-12-16T10:41:19.556Z,31.23
2022-12-16T10:44:01.433Z,27.67
2022-12-16T10:46:31.565Z,28.25
2022-12-16T10:48:56.940Z,26.60
2022-12-16T10:51:19.282Z,29.70
2022-12-16T10:53:46.477Z,28.20
2022-12-16T10:56:31.807Z,27.83
2022-12-16T10:59:05.767Z,28.88
2022-12-16T11:01:44.534Z,29.65
2022-12-16T11:04:05.188Z,30.73
2022-12-16T11:06:27.188Z,38.67
2022-12-16T11:08:55.705Z,34.20
2022-12-16T11:11:40.722Z,27.17
2022-12-16T11:14:01.211Z,34.22
2022-12-16T11:16:29.515Z,33.42
2022-12-16T11:18:50.095Z,24.92
2022-12-16T11:21:35.578Z,31.52
2022-12-16T11:23:56.025Z,36.42
2022-12-16T11:26:43.452Z,36.80
2022-12-16T11:29:05.520Z,30.02
2022-12-16T11:31:54.102Z,33.90
2022-12-16T11:34:33.240Z,29.63
2022-12-16T11:36:56.963Z,28.30
2022-12-16T11:39:17.851Z,32.60
2022-12-16T11:44:10.697Z,31.58
2022-12-16T11:46:34.448Z,27.10
2022-12-16T11:49:04.160Z,31.77
2022-12-16T11:51:31.413Z,33.47
2022-12-16T11:54:08.527Z,30.83
2022-12-16T11:56:34.670Z,31.55
2022-12-16T11:59:09.983Z,25.35
2022-12-16T12:01:45.564Z,33.85
2022-12-16T12:04:08.948Z,31.05
2022-12-16T12:06:43.813Z,29.95
2022-12-16T12:09:34.658Z,36.78
2022-12-16T12:12:01.680Z,30.90
2022-12-16T12:14:44.096Z,28.13
2022-12-16T12:17:19.412Z,26.60
2022-12-16T12:20:01.000Z,28.50
2022-12-16T12:22:29.587Z,32.17
2022-12-16T12:25:09.350Z,25.77
2022-12-16T12:27:47.841Z,28.90
2022-12-16T12:30:23.466Z,35.50
2022-12-16T12:33:01.658Z,28.48
2022-12-16T12:35:32.204Z,28.88
2022-12-16T12:38:04.218Z,25.45
2022-12-16T12:41:14.310Z,29.55
2022-12-16T12:43:54.597Z,28.20
2022-12-16T12:46:29.020Z,32.75
2022-12-16T12:49:14.093Z,29.30
2022-12-16T12:51:56.441Z,32.35
2022-12-16T12:54:22.989Z,34.90
2022-12-16T12:57:15.573Z,32.30
2022-12-16T12:59:47.110Z,30.38
2022-12-16T13:02:11.143Z,36.97
2022-12-16T13:04:36.287Z,27.15
2022-12-16T13:06:57.489Z,29.30
2022-12-16T13:09:18.475Z,30.95
2022-12-16T13:11:38.729Z,27.52
2022-12-16T13:13:59.304Z,27.25
2022-12-16T13:16:20.942Z,26.27
2022-12-16T13:18:44.191Z,31.15
2022-12-16T13:21:09.426Z,31.38
2022-12-16T13:23:49.657Z,28.25
2022-12-16T13:26:11.257Z,27.63
2022-12-16T13:28:40.254Z,31.73
2022-12-16T13:31:24.664Z,30.98
2022-12-16T13:33:50.098Z,27.00
2022-12-16T13:36:15.071Z,28.95
2022-12-16T13:38:40.302Z,31.90
2022-12-16T13:41:19.075Z,26.00
2022-12-16T13:44:05.313Z,27.98
2022-12-16T13:46:25.289Z,24.65
2022-12-16T13:48:53.733Z,27.35
2022-12-16T13:51:18.809Z,33.55
2022-12-16T13:53:43.921Z,27.90
2022-12-16T13:56:19.355Z,31.38
2022-12-16T13:59:11.220Z,27.92
2022-12-16T14:01:35.652Z,35.00
2022-12-16T14:04:03.791Z,25.25
2022-12-16T14:06:34.563Z,34.47
2022-12-16T14:09:00.014Z,27.88
2022-12-16T14:11:23.440Z,31.20
2022-12-16T14:13:50.441Z,28.13
2022-12-16T14:16:26.517Z,26.90
2022-12-16T14:19:07.534Z,26.55
2022-12-16T14:21:34.567Z,29.80
2022-12-16T14:24:04.125Z,28.73
2022-12-16T14:26:31.100Z,29.98
2022-12-16T14:28:54.223Z,23.92
2022-12-16T14:31:35.759Z,24.92
2022-12-16T14:33:56.079Z,33.90
2022-12-16T14:36:16.573Z,28.13
2022-12-16T14:38:49.835Z,26.75
2022-12-16T14:41:10.911Z,25.30
2022-12-16T14:43:36.093Z,24.30
2022-12-16T14:45:57.819Z,26.10
2022-12-16T14:48:19.206Z,32.20
2022-12-16T14:50:48.750Z,27.88
2022-12-16T14:53:09.233Z,26.25
2022-12-16T14:55:47.419Z,28.30
2022-12-16T14:58:20.990Z,28.63
2022-12-16T15:00:42.762Z,26.38
2022-12-16T15:03:06.260Z,28.55
2022-12-16T15:05:26.943Z,27.80
2022-12-16T15:07:53.449Z,28.55
2022-12-16T15:10:17.810Z,32.55
2022-12-16T15:12:42.076Z,31.45
2022-12-16T15:15:02.590Z,26.95
2022-12-16T15:17:23.256Z,28.92
2022-12-16T15:19:44.020Z,27.17
2022-12-16T15:22:06.072Z,29.27
2022-12-16T15:24:29.091Z,28.88
2022-12-16T15:26:51.885Z,27.45
2022-12-16T15:29:12.865Z,34.00
2022-12-16T15:31:41.893Z,32.47
2022-12-16T15:34:02.098Z,28.30
2022-12-16T15:36:24.059Z,30.38
2022-12-16T15:38:50.534Z,28.48
2022-12-16T15:41:11.011Z,32.47
2022-12-16T15:43:45.501Z,31.75
2022-12-16T15:46:09.539Z,29.75
2022-12-16T15:48:41.941Z,32.40
2022-12-16T15:51:11.522Z,31.10
2022-12-16T15:53:47.241Z,33.78
2022-12-16T15:56:14.940Z,33.10
2022-12-16T15:58:47.475Z,35.25
2022-12-16T16:01:19.423Z,33.15
2022-12-16T16:03:52.414Z,30.98
2022-12-16T16:06:12.736Z,40.08
2022-12-16T16:08:32.771Z,34.55
2022-12-16T16:10:53.110Z,33.60
2022-12-16T16:13:13.353Z,41.40
2022-12-16T16:15:33.791Z,34.97
2022-12-16T16:17:54.312Z,33.90
2022-12-16T16:20:14.569Z,34.55
2022-12-16T16:22:36.521Z,39.15
2022-12-16T16:25:04.272Z,36.72
2022-12-16T16:27:29.923Z,33.95
2022-12-16T16:29:50.057Z,37.35
2022-12-16T16:32:11.417Z,43.20
2022-12-16T16:34:31.750Z,40.83
2022-12-16T16:36:52.359Z,32.05
2022-12-16T16:39:12.981Z,38.10
2022-12-16T16:41:34.506Z,36.90
2022-12-16T16:43:55.023Z,38.70
2022-12-16T16:46:15.634Z,40.80
2022-12-16T16:53:17.448Z,40.97
2022-12-16T16:55:40.592Z,37.08
2022-12-16T16:58:01.788Z,42.63
2022-12-16T17:00:22.836Z,47.05
2022-12-16T17:02:43.740Z,37.13
2022-12-16T17:07:24.596Z,37.75
2022-12-16T17:09:44.811Z,45.45
2022-12-16T17:12:05.144Z,36.13
2022-12-16T17:14:31.249Z,47.45
2022-12-16T17:16:51.814Z,44.75
2022-12-16T17:19:12.281Z,46.92
2022-12-16T17:21:32.729Z,40.22
2022-12-16T17:23:54.717Z,42.40
2022-12-16T17:26:15.263Z,41.70
2022-12-16T17:28:35.775Z,43.42
2022-12-16T17:30:56.416Z,43.35
2022-12-16T17:33:16.947Z,39.10
2022-12-16T17:35:37.500Z,38.50
2022-12-16T17:38:03.294Z,40.70
2022-12-16T17:40:23.815Z,43.38
2022-12-16T17:42:46.583Z,37.08
2022-12-16T17:45:07.216Z,37.65
2022-12-16T17:47:27.978Z,45.63
2022-12-16T17:52:08.675Z,38.10
2022-12-16T17:54:29.644Z,44.20
2022-12-16T17:56:50.333Z,43.05
2022-12-16T17:59:11.334Z,49.05
2022-12-16T18:01:32.005Z,43.42
2022-12-16T18:03:52.815Z,40.35
2022-12-16T18:06:16.595Z,41.28
2022-12-16T18:08:36.968Z,41.50
2022-12-16T18:10:57.307Z,35.45
2022-12-16T18:13:17.216Z,34.90
2022-12-16T18:15:37.415Z,39.50
2022-12-16T18:18:07.061Z,40.28
2022-12-16T18:20:27.668Z,43.95
2022-12-16T18:22:48.268Z,44.22
2022-12-16T18:25:08.654Z,44.35
2022-12-16T18:27:29.174Z,39.38
2022-12-16T18:29:49.490Z,48.78
2022-12-16T18:32:20.380Z,44.75
2022-12-16T18:37:01.328Z,44.30
2022-12-16T18:39:22.304Z,48.63
2022-12-16T18:41:42.627Z,48.05
2022-12-16T18:44:02.879Z,46.95
2022-12-16T18:46:23.341Z,45.33
2022-12-16T18:48:43.926Z,50.58
2022-12-16T18:51:12.077Z,46.28
2022-12-16T18:53:32.930Z,51.95
2022-12-16T18:56:13.388Z,44.13
2022-12-16T19:01:25.728Z,46.50
2022-12-16T19:03:46.371Z,50.72
2022-12-16T19:06:14.367Z,49.08
2022-12-16T19:08:34.419Z,43.50
2022-12-16T19:10:54.645Z,46.70
2022-12-16T19:13:18.362Z,53.97
2022-12-16T19:15:41.512Z,45.67
2022-12-16T19:18:07.524Z,46.95
2022-12-16T19:20:32.896Z,50.55
2022-12-16T19:22:53.553Z,48.47
2022-12-16T19:25:16.203Z,57.90
2022-12-16T19:27:42.241Z,46.97
2022-12-16T19:30:02.618Z,49.97
2022-12-16T19:32:23.281Z,52.05
2022-12-16T19:34:43.986Z,54.78
2022-12-16T19:37:04.116Z,49.05
2022-12-16T19:39:24.687Z,51.05
2022-12-16T19:41:45.522Z,51.28
2022-12-16T19:46:27.328Z,50.20
2022-12-16T19:48:47.741Z,45.55
2022-12-16T19:51:07.907Z,46.17
2022-12-16T19:53:28.288Z,50.85
2022-12-16T19:55:48.560Z,48.83
2022-12-16T19:58:08.898Z,50.63
2022-12-16T20:00:30.097Z,47.92
2022-12-16T20:05:10.756Z,46.90
2022-12-16T20:07:31.026Z,49.42
2022-12-16T20:09:54.885Z,45.28
2022-12-16T20:12:16.155Z,49.00
2022-12-16T20:14:36.671Z,46.70
2022-12-16T20:16:57.661Z,51.55
2022-12-16T20:19:18.418Z,47.20
2022-12-16T20:21:38.738Z,51.22
2022-12-16T20:23:58.801Z,51.63
2022-12-16T20:26:20.269Z,45.78
2022-12-16T20:28:40.796Z,49.72
2022-12-16T20:31:01.077Z,47.22
2022-12-16T20:33:21.436Z,54.10
2022-12-16T20:35:41.811Z,56.20
2022-12-16T20:38:03.841Z,44.50
2022-12-16T20:40:24.833Z,52.22
2022-12-16T20:42:56.447Z,48.83
2022-12-16T20:45:16.784Z,48.30
2022-12-16T20:47:42.015Z,52.30
2022-12-16T20:50:02.150Z,51.42
2022-12-16T20:52:23.340Z,47.35
2022-12-16T20:54:43.838Z,52.30
2022-12-16T20:57:05.997Z,50.92
2022-12-16T20:59:28.650Z,53.03
2022-12-16T21:02:21.219Z,55.65
2022-12-16T21:04:29.308Z,51.13
2022-12-16T21:06:49.588Z,52.90
2022-12-16T21:09:10.079Z,55.88
2022-12-16T21:11:30.638Z,50.92
2022-12-16T21:13:51.008Z,50.90
2022-12-16T21:16:12.548Z,55.40
2022-12-16T21:18:33.079Z,48.50
2022-12-16T21:20:53.246Z,52.25
2022-12-16T21:23:23.642Z,56.95
2022-12-16T21:25:44.044Z,52.50
2022-12-16T21:28:05.483Z,54.10
2022-12-16T21:30:26.200Z,54.83
2022-12-16T21:35:06.513Z,50.13
2022-12-16T21:37:26.778Z,49.35
2022-12-16T21:39:47.159Z,50.53
2022-12-16T21:42:07.353Z,48.75
2022-12-16T21:44:27.558Z,48.60
2022-12-16T21:46:47.944Z,51.10
2022-12-16T21:49:08.106Z,51.30
2022-12-16T21:51:29.505Z,56.30
2022-12-16T21:53:49.813Z,45.17
2022-12-16T21:56:13.803Z,54.33
2022-12-16T21:58:33.870Z,50.45
2022-12-16T22:00:58.812Z,52.28
2022-12-16T22:03:21.142Z,51.97
2022-12-16T22:05:41.690Z,46.22
2022-12-16T22:08:03.254Z,50.75
2022-12-16T22:10:24.142Z,49.03
2022-12-16T22:15:04.617Z,56.05
2022-12-16T22:17:24.723Z,48.72
2022-12-16T22:19:45.267Z,48.22
2022-12-16T22:22:06.297Z,48.67
2022-12-16T22:24:27.235Z,50.50
2022-12-16T22:26:47.529Z,54.45
2022-12-16T22:29:11.134Z,58.15
2022-12-16T22:31:31.680Z,50.22
2022-12-16T22:33:52.037Z,59.53
2022-12-16T22:36:18.842Z,55.42
2022-12-16T22:38:39.384Z,54.45
2022-12-16T22:40:59.874Z,55.72
2022-12-16T22:43:20.273Z,53.55
2022-12-16T22:45:40.787Z,62.30
2022-12-16T22:48:06.680Z,57.03
2022-12-16T22:50:27.233Z,53.13
2022-12-16T22:52:47.705Z,47.75
2022-12-16T22:55:08.286Z,51.95
2022-12-16T22:57:28.717Z,56.97
2022-12-16T22:59:49.471Z,43.28
2022-12-16T23:02:09.551Z,45.22
2022-12-16T23:04:30.196Z,42.60
2022-12-16T23:06:50.587Z,47.33
2022-12-16T23:09:10.690Z,44.85
2022-12-16T23:11:39.976Z,49.90
2022-12-16T23:14:00.482Z,40.75
2022-12-16T23:16:20.803Z,44.00
2022-12-16T23:18:40.776Z,43.85
2022-12-16T23:21:06.457Z,48.70
2022-12-16T23:23:26.981Z,43.92
2022-12-16T23:25:47.755Z,43.70
2022-12-16T23:30:30.338Z,46.80
2022-12-16T23:32:50.206Z,45.13
2022-12-16T23:35:10.291Z,43.47
2022-12-16T23:37:30.500Z,40.42
2022-12-16T23:39:51.013Z,44.10
2022-12-16T23:42:12.384Z,46.97
2022-12-16T23:44:32.647Z,44.20
2022-12-16T23:46:53.422Z,43.13
2022-12-16T23:49:13.955Z,51.00
2022-12-16T23:51:34.351Z,44.92
2022-12-16T23:53:54.345Z,44.50
2022-12-16T23:56:18.542Z,42.58
2022-12-16T23:58:38.522Z,45.97
